sensor_id;sensor_type;location;lat;lon;timestamp;pressure;altitude;pressure_sealevel;temperature;humidity
64876;BME280;51369;49.862;9.908;2023-05-25T00:01:08;98890.78;;;11.15;56.85
64876;BME280;51369;49.862;9.908;2023-05-25T00:03:34;98891.81;;;11.11;58.36
64876;BME280;51369;49.862;9.908;2023-05-25T00:06:00;98889.28;;;11.06;58.41
64876;BME280;51369;49.862;9.908;2023-05-25T00:08:25;98885.03;;;10.99;58.36
64876;BME280;51369;49.862;9.908;2023-05-25T00:10:51;98887.09;;;10.93;58.72
64876;BME280;51369;49.862;9.908;2023-05-25T00:13:16;98886.47;;;10.85;58.37
64876;BME280;51369;49.862;9.908;2023-05-25T00:15:41;98885.81;;;10.78;59.76
64876;BME280;51369;49.862;9.908;2023-05-25T00:18:07;98893.31;;;10.70;59.45
64876;BME280;51369;49.862;9.908;2023-05-25T00:20:32;98882.72;;;10.64;59.94
64876;BME280;51369;49.862;9.908;2023-05-25T00:22:58;98889.25;;;10.57;59.70
64876;BME280;51369;49.862;9.908;2023-05-25T00:25:26;98893.88;;;10.53;59.60
64876;BME280;51369;49.862;9.908;2023-05-25T00:27:52;98894.03;;;10.49;59.23
64876;BME280;51369;49.862;9.908;2023-05-25T00:30:17;98899.53;;;10.46;60.05
64876;BME280;51369;49.862;9.908;2023-05-25T00:32:43;98896.13;;;10.40;59.01
64876;BME280;51369;49.862;9.908;2023-05-25T00:35:08;98889.09;;;10.36;58.98
64876;BME280;51369;49.862;9.908;2023-05-25T00:37:33;98900.88;;;10.34;59.39
64876;BME280;51369;49.862;9.908;2023-05-25T00:39:59;98897.28;;;10.33;59.25
64876;BME280;51369;49.862;9.908;2023-05-25T00:42:25;98897.44;;;10.29;59.46
64876;BME280;51369;49.862;9.908;2023-05-25T00:44:52;98898.47;;;10.25;60.21
64876;BME280;51369;49.862;9.908;2023-05-25T00:47:19;98889.66;;;10.20;60.62
64876;BME280;51369;49.862;9.908;2023-05-25T00:49:44;98890.56;;;10.19;60.34
64876;BME280;51369;49.862;9.908;2023-05-25T00:52:11;98892.34;;;10.20;60.16
64876;BME280;51369;49.862;9.908;2023-05-25T00:54:37;98894.13;;;10.19;59.73
64876;BME280;51369;49.862;9.908;2023-05-25T00:57:05;98900.47;;;10.18;59.34
64876;BME280;51369;49.862;9.908;2023-05-25T01:02:03;98899.59;;;10.18;59.47
64876;BME280;51369;49.862;9.908;2023-05-25T01:04:33;98899.69;;;10.15;59.27
64876;BME280;51369;49.862;9.908;2023-05-25T01:07:02;98891.69;;;10.11;59.54
64876;BME280;51369;49.862;9.908;2023-05-25T01:09:29;98892.66;;;10.09;59.79
64876;BME280;51369;49.862;9.908;2023-05-25T01:11:59;98902.63;;;10.07;60.10
64876;BME280;51369;49.862;9.908;2023-05-25T01:14:26;98889.25;;;10.04;59.55
64876;BME280;51369;49.862;9.908;2023-05-25T01:16:54;98894.72;;;10.01;58.94
64876;BME280;51369;49.862;9.908;2023-05-25T01:19:21;98888.56;;;9.97;59.41
64876;BME280;51369;49.862;9.908;2023-05-25T01:24:26;98895.16;;;9.87;60.63
64876;BME280;51369;49.862;9.908;2023-05-25T01:27:01;98894.38;;;9.84;60.53
64876;BME280;51369;49.862;9.908;2023-05-25T01:29:30;98887.38;;;9.78;60.23
64876;BME280;51369;49.862;9.908;2023-05-25T01:31:57;98895.59;;;9.73;60.88
64876;BME280;51369;49.862;9.908;2023-05-25T01:34:23;98889.47;;;9.68;61.08
64876;BME280;51369;49.862;9.908;2023-05-25T01:36:49;98893.22;;;9.63;60.61
64876;BME280;51369;49.862;9.908;2023-05-25T01:39:15;98893.34;;;9.60;61.18
64876;BME280;51369;49.862;9.908;2023-05-25T01:41:40;98897.00;;;9.57;61.00
64876;BME280;51369;49.862;9.908;2023-05-25T01:44:06;98897.97;;;9.55;61.24
64876;BME280;51369;49.862;9.908;2023-05-25T01:46:36;98904.34;;;9.52;61.40
64876;BME280;51369;49.862;9.908;2023-05-25T01:49:11;98907.13;;;9.49;61.29
64876;BME280;51369;49.862;9.908;2023-05-25T01:54:20;98904.56;;;9.44;61.71
64876;BME280;51369;49.862;9.908;2023-05-25T01:56:50;98905.50;;;9.43;61.80
64876;BME280;51369;49.862;9.908;2023-05-25T01:59:19;98897.47;;;9.42;61.96
64876;BME280;51369;49.862;9.908;2023-05-25T02:01:47;98898.38;;;9.41;61.67
64876;BME280;51369;49.862;9.908;2023-05-25T02:04:14;98899.28;;;9.41;62.18
64876;BME280;51369;49.862;9.908;2023-05-25T02:06:41;98896.63;;;9.40;61.50
64876;BME280;51369;49.862;9.908;2023-05-25T02:09:06;98889.47;;;9.39;62.14
64876;BME280;51369;49.862;9.908;2023-05-25T02:11:32;98898.44;;;9.39;61.49
64876;BME280;51369;49.862;9.908;2023-05-25T02:13:57;98899.34;;;9.38;62.08
64876;BME280;51369;49.862;9.908;2023-05-25T02:16:23;98903.88;;;9.38;62.45
64876;BME280;51369;49.862;9.908;2023-05-25T02:18:50;98904.78;;;9.37;62.06
64876;BME280;51369;49.862;9.908;2023-05-25T02:21:15;98909.31;;;9.36;62.69
64876;BME280;51369;49.862;9.908;2023-05-25T02:23:42;98900.38;;;9.34;62.67
64876;BME280;51369;49.862;9.908;2023-05-25T02:26:07;98906.69;;;9.33;62.28
64876;BME280;51369;49.862;9.908;2023-05-25T02:28:33;98908.50;;;9.33;61.80
64876;BME280;51369;49.862;9.908;2023-05-25T02:30:58;98896.81;;;9.34;61.97
64876;BME280;51369;49.862;9.908;2023-05-25T02:33:23;98904.88;;;9.34;62.33
64876;BME280;51369;49.862;9.908;2023-05-25T02:35:49;98895.00;;;9.34;61.81
64876;BME280;51369;49.862;9.908;2023-05-25T02:38:14;98904.00;;;9.33;61.75
64876;BME280;51369;49.862;9.908;2023-05-25T02:40:40;98898.56;;;9.35;62.20
64876;BME280;51369;49.862;9.908;2023-05-25T02:43:05;98894.09;;;9.34;61.82
64876;BME280;51369;49.862;9.908;2023-05-25T02:45:31;98903.06;;;9.34;61.67
64876;BME280;51369;49.862;9.908;2023-05-25T02:47:56;98894.09;;;9.34;61.82
64876;BME280;51369;49.862;9.908;2023-05-25T02:50:22;98896.84;;;9.32;61.86
64876;BME280;51369;49.862;9.908;2023-05-25T02:52:52;98894.19;;;9.31;61.33
64876;BME280;51369;49.862;9.908;2023-05-25T02:55:18;98897.81;;;9.30;61.93
64876;BME280;51369;49.862;9.908;2023-05-25T02:57:44;98890.66;;;9.29;61.94
64876;BME280;51369;49.862;9.908;2023-05-25T03:00:15;98898.78;;;9.27;61.98
64876;BME280;51369;49.862;9.908;2023-05-25T03:02:40;98897.03;;;9.26;61.74
64876;BME280;51369;49.862;9.908;2023-05-25T03:05:06;98896.19;;;9.24;62.38
64876;BME280;51369;49.862;9.908;2023-05-25T03:07:32;98900.66;;;9.25;61.74
64876;BME280;51369;49.862;9.908;2023-05-25T03:09:58;98906.03;;;9.25;61.97
64876;BME280;51369;49.862;9.908;2023-05-25T03:12:23;98898.84;;;9.26;62.45
64876;BME280;51369;49.862;9.908;2023-05-25T03:14:49;98892.56;;;9.25;61.74
64876;BME280;51369;49.862;9.908;2023-05-25T03:17:15;98898.84;;;9.26;62.50
64876;BME280;51369;49.862;9.908;2023-05-25T03:19:41;98896.09;;;9.27;62.24
64876;BME280;51369;49.862;9.908;2023-05-25T03:22:09;98901.44;;;9.29;62.09
64876;BME280;51369;49.862;9.908;2023-05-25T03:24:35;98892.44;;;9.30;62.91
64876;BME280;51369;49.862;9.908;2023-05-25T03:27:06;98904.97;;;9.31;62.58
64876;BME280;51369;49.862;9.908;2023-05-25T03:29:32;98902.22;;;9.32;62.09
64876;BME280;51369;49.862;9.908;2023-05-25T03:31:58;98902.28;;;9.31;61.83
64876;BME280;51369;49.862;9.908;2023-05-25T03:34:25;98899.59;;;9.31;62.63
64876;BME280;51369;49.862;9.908;2023-05-25T03:36:51;98904.06;;;9.32;62.74
64876;BME280;51369;49.862;9.908;2023-05-25T03:39:18;98895.13;;;9.30;62.37
64876;BME280;51369;49.862;9.908;2023-05-25T03:41:44;98895.97;;;9.32;61.61
64876;BME280;51369;49.862;9.908;2023-05-25T03:44:10;98893.19;;;9.35;62.70
64876;BME280;51369;49.862;9.908;2023-05-25T03:46:35;98907.50;;;9.37;63.09
64876;BME280;51369;49.862;9.908;2023-05-25T03:49:01;98907.44;;;9.38;63.51
64876;BME280;51369;49.862;9.908;2023-05-25T03:51:26;98912.84;;;9.38;62.23
64876;BME280;51369;49.862;9.908;2023-05-25T03:53:53;98919.13;;;9.39;62.54
64876;BME280;51369;49.862;9.908;2023-05-25T03:56:19;98913.72;;;9.39;63.34
64876;BME280;51369;49.862;9.908;2023-05-25T03:58:44;98926.25;;;9.40;63.37
64876;BME280;51369;49.862;9.908;2023-05-25T04:01:10;98928.06;;;9.39;63.23
64876;BME280;51369;49.862;9.908;2023-05-25T04:03:36;98936.22;;;9.38;62.87
64876;BME280;51369;49.862;9.908;2023-05-25T04:06:02;98941.59;;;9.38;63.18
64876;BME280;51369;49.862;9.908;2023-05-25T04:08:27;98941.59;;;9.38;63.29
64876;BME280;51369;49.862;9.908;2023-05-25T04:10:52;98937.97;;;9.39;63.21
64876;BME280;51369;49.862;9.908;2023-05-25T04:13:19;98946.94;;;9.39;63.40
64876;BME280;51369;49.862;9.908;2023-05-25T04:15:44;98946.06;;;9.39;63.52
64876;BME280;51369;49.862;9.908;2023-05-25T04:18:19;98955.88;;;9.41;63.47
64876;BME280;51369;49.862;9.908;2023-05-25T04:20:46;98960.34;;;9.42;63.71
64876;BME280;51369;49.862;9.908;2023-05-25T04:23:13;98947.75;;;9.43;63.59
64876;BME280;51369;49.862;9.908;2023-05-25T04:25:40;98960.28;;;9.44;63.15
64876;BME280;51369;49.862;9.908;2023-05-25T04:28:06;98969.22;;;9.46;63.21
64876;BME280;51369;49.862;9.908;2023-05-25T04:30:50;98969.16;;;9.48;63.29
64876;BME280;51369;49.862;9.908;2023-05-25T04:33:36;98966.38;;;9.51;63.58
64876;BME280;51369;49.862;9.908;2023-05-25T04:36:14;98976.19;;;9.53;64.10
64876;BME280;51369;49.862;9.908;2023-05-25T04:38:39;98977.03;;;9.55;62.75
64876;BME280;51369;49.862;9.908;2023-05-25T04:41:06;98978.81;;;9.56;64.78
64876;BME280;51369;49.862;9.908;2023-05-25T04:43:32;98976.03;;;9.59;64.07
64876;BME280;51369;49.862;9.908;2023-05-25T04:45:59;98982.19;;;9.63;64.24
64876;BME280;51369;49.862;9.908;2023-05-25T04:48:25;98980.34;;;9.65;63.51
64876;BME280;51369;49.862;9.908;2023-05-25T04:50:53;98986.53;;;9.68;64.55
64876;BME280;51369;49.862;9.908;2023-05-25T04:53:21;98981.09;;;9.70;65.51
64876;BME280;51369;49.862;9.908;2023-05-25T04:55:47;98980.03;;;9.75;65.05
64876;BME280;51369;49.862;9.908;2023-05-25T04:58:13;98993.44;;;9.78;65.41
64876;BME280;51369;49.862;9.908;2023-05-25T05:00:39;98996.88;;;9.84;65.50
64876;BME280;51369;49.862;9.908;2023-05-25T05:03:04;98987.75;;;9.88;65.65
64876;BME280;51369;49.862;9.908;2023-05-25T05:05:30;98992.13;;;9.92;64.15
64876;BME280;51369;49.862;9.908;2023-05-25T05:07:58;98996.41;;;9.99;65.55
64876;BME280;51369;49.862;9.908;2023-05-25T05:10:24;98990.88;;;10.03;64.57
64876;BME280;51369;49.862;9.908;2023-05-25T05:12:54;98992.50;;;10.09;64.99
64876;BME280;51369;49.862;9.908;2023-05-25T05:15:20;98992.31;;;10.15;66.17
64876;BME280;51369;49.862;9.908;2023-05-25T05:17:47;98992.09;;;10.23;66.13
64876;BME280;51369;49.862;9.908;2023-05-25T05:20:12;98997.22;;;10.32;66.26
64876;BME280;51369;49.862;9.908;2023-05-25T05:22:38;98987.97;;;10.39;65.89
64876;BME280;51369;49.862;9.908;2023-05-25T05:25:04;98987.66;;;10.48;66.10
64876;BME280;51369;49.862;9.908;2023-05-25T05:27:30;98990.06;;;10.57;66.55
64876;BME280;51369;49.862;9.908;2023-05-25T05:30:00;98988.66;;;10.72;66.84
64876;BME280;51369;49.862;9.908;2023-05-25T05:32:26;98989.19;;;10.83;65.99
64876;BME280;51369;49.862;9.908;2023-05-25T05:34:52;98985.13;;;10.96;65.04
64876;BME280;51369;49.862;9.908;2023-05-25T05:37:36;98984.66;;;11.10;65.20
64876;BME280;51369;49.862;9.908;2023-05-25T05:40:01;98985.09;;;11.23;65.59
64876;BME280;51369;49.862;9.908;2023-05-25T05:42:27;98973.72;;;11.38;65.38
64876;BME280;51369;49.862;9.908;2023-05-25T05:44:52;98986.56;;;11.56;63.87
64876;BME280;51369;49.862;9.908;2023-05-25T05:47:17;98996.72;;;11.74;63.72
64876;BME280;51369;49.862;9.908;2023-05-25T05:49:43;98992.47;;;11.92;63.93
64876;BME280;51369;49.862;9.908;2023-05-25T05:52:08;98988.22;;;12.09;63.41
64876;BME280;51369;49.862;9.908;2023-05-25T05:54:34;99004.72;;;12.24;62.29
64876;BME280;51369;49.862;9.908;2023-05-25T05:57:05;99007.63;;;12.42;61.37
64876;BME280;51369;49.862;9.908;2023-05-25T05:59:31;99005.38;;;12.53;60.98
64876;BME280;51369;49.862;9.908;2023-05-25T06:01:56;99007.66;;;12.63;60.92
64876;BME280;51369;49.862;9.908;2023-05-25T06:04:22;99016.22;;;12.75;61.26
64876;BME280;51369;49.862;9.908;2023-05-25T06:06:50;99013.13;;;12.84;61.89
64876;BME280;51369;49.862;9.908;2023-05-25T06:09:16;99010.03;;;12.93;60.76
64876;BME280;51369;49.862;9.908;2023-05-25T06:11:41;99009.59;;;13.03;61.33
64876;BME280;51369;49.862;9.908;2023-05-25T06:14:08;99015.44;;;13.15;61.22
64876;BME280;51369;49.862;9.908;2023-05-25T06:16:33;99023.06;;;13.27;61.36
64876;BME280;51369;49.862;9.908;2023-05-25T06:18:59;99014.34;;;13.41;61.56
64876;BME280;51369;49.862;9.908;2023-05-25T06:21:25;99010.13;;;13.54;61.25
64876;BME280;51369;49.862;9.908;2023-05-25T06:23:51;99005.97;;;13.65;59.98
64876;BME280;51369;49.862;9.908;2023-05-25T06:26:17;99009.09;;;13.77;59.53
64876;BME280;51369;49.862;9.908;2023-05-25T06:28:42;99013.03;;;13.88;59.17
64876;BME280;51369;49.862;9.908;2023-05-25T06:31:07;99009.91;;;13.97;58.99
64876;BME280;51369;49.862;9.908;2023-05-25T06:33:33;99013.06;;;14.07;59.63
64876;BME280;51369;49.862;9.908;2023-05-25T06:35:58;99014.41;;;14.17;58.74
64876;BME280;51369;49.862;9.908;2023-05-25T06:38:27;99019.41;;;14.26;58.25
64876;BME280;51369;49.862;9.908;2023-05-25T06:40:52;99024.41;;;14.36;58.33
64876;BME280;51369;49.862;9.908;2023-05-25T06:43:18;99017.69;;;14.44;56.99
64876;BME280;51369;49.862;9.908;2023-05-25T06:46:07;99026.28;;;14.54;57.68
64876;BME280;51369;49.862;9.908;2023-05-25T06:48:35;99028.63;;;14.61;57.39
64876;BME280;51369;49.862;9.908;2023-05-25T06:51:02;99024.56;;;14.70;56.97
64876;BME280;51369;49.862;9.908;2023-05-25T06:53:28;99023.31;;;14.77;57.79
64876;BME280;51369;49.862;9.908;2023-05-25T06:55:53;99022.94;;;14.85;56.86
64876;BME280;51369;49.862;9.908;2023-05-25T06:58:19;99030.63;;;14.94;57.25
64876;BME280;51369;49.862;9.908;2023-05-25T07:00:44;99016.66;;;15.02;56.80
64876;BME280;51369;49.862;9.908;2023-05-25T07:03:10;99010.91;;;15.08;55.88
64876;BME280;51369;49.862;9.908;2023-05-25T07:05:35;99013.22;;;15.15;56.61
64876;BME280;51369;49.862;9.908;2023-05-25T07:08:00;99016.38;;;15.25;55.80
64876;BME280;51369;49.862;9.908;2023-05-25T07:10:26;99024.22;;;15.31;56.11
64876;BME280;51369;49.862;9.908;2023-05-25T07:12:51;99019.25;;;15.39;55.79
64876;BME280;51369;49.862;9.908;2023-05-25T07:15:16;99017.09;;;15.46;55.83
64876;BME280;51369;49.862;9.908;2023-05-25T07:17:42;99004.91;;;15.53;55.28
64876;BME280;51369;49.862;9.908;2023-05-25T07:20:08;99001.78;;;15.60;55.60
64876;BME280;51369;49.862;9.908;2023-05-25T07:22:34;99008.50;;;15.71;56.35
64876;BME280;51369;49.862;9.908;2023-05-25T07:25:00;99006.97;;;15.82;56.15
64876;BME280;51369;49.862;9.908;2023-05-25T07:27:26;99007.53;;;15.89;55.05
64876;BME280;51369;49.862;9.908;2023-05-25T07:29:51;99005.09;;;16.00;54.77
64876;BME280;51369;49.862;9.908;2023-05-25T07:32:17;99005.56;;;16.08;54.89
64876;BME280;51369;49.862;9.908;2023-05-25T07:34:42;99003.28;;;16.16;53.86
64876;BME280;51369;49.862;9.908;2023-05-25T07:37:07;99009.97;;;16.26;53.48
64876;BME280;51369;49.862;9.908;2023-05-25T07:39:33;99020.38;;;16.36;53.95
64876;BME280;51369;49.862;9.908;2023-05-25T07:41:58;99014.31;;;16.46;54.63
64876;BME280;51369;49.862;9.908;2023-05-25T07:44:24;99021.81;;;16.58;54.42
64876;BME280;51369;49.862;9.908;2023-05-25T07:46:49;99024.84;;;16.70;53.09
64876;BME280;51369;49.862;9.908;2023-05-25T07:49:14;99017.00;;;16.79;52.81
64876;BME280;51369;49.862;9.908;2023-05-25T07:51:44;99017.44;;;16.87;52.60
64876;BME280;51369;49.862;9.908;2023-05-25T07:54:10;99024.28;;;16.95;52.22
64876;BME280;51369;49.862;9.908;2023-05-25T07:56:36;99022.09;;;17.01;51.76
64876;BME280;51369;49.862;9.908;2023-05-25T07:59:01;99019.78;;;17.09;52.41
64876;BME280;51369;49.862;9.908;2023-05-25T08:01:27;99017.50;;;17.17;52.04
64876;BME280;51369;49.862;9.908;2023-05-25T08:03:52;99016.25;;;17.23;51.72
64876;BME280;51369;49.862;9.908;2023-05-25T08:06:18;99018.63;;;17.29;51.54
64876;BME280;51369;49.862;9.908;2023-05-25T08:08:43;99028.94;;;17.38;51.50
64876;BME280;51369;49.862;9.908;2023-05-25T08:11:09;99024.09;;;17.43;50.94
64876;BME280;51369;49.862;9.908;2023-05-25T08:13:35;99028.41;;;17.47;51.09
64876;BME280;51369;49.862;9.908;2023-05-25T08:16:01;99017.00;;;17.55;50.90
64876;BME280;51369;49.862;9.908;2023-05-25T08:18:26;99014.00;;;17.60;50.50
64876;BME280;51369;49.862;9.908;2023-05-25T08:20:52;99013.66;;;17.66;50.36
64876;BME280;51369;49.862;9.908;2023-05-25T08:23:17;99015.13;;;17.71;50.74
64876;BME280;51369;49.862;9.908;2023-05-25T08:25:42;99013.97;;;17.75;50.00
64876;BME280;51369;49.862;9.908;2023-05-25T08:28:08;99016.41;;;17.80;51.00
64876;BME280;51369;49.862;9.908;2023-05-25T08:30:33;99015.25;;;17.84;50.89
64876;BME280;51369;49.862;9.908;2023-05-25T08:32:58;99016.72;;;17.89;50.44
64876;BME280;51369;49.862;9.908;2023-05-25T08:35:24;99020.03;;;17.95;49.95
64876;BME280;51369;49.862;9.908;2023-05-25T08:37:49;99019.56;;;18.02;50.45
64876;BME280;51369;49.862;9.908;2023-05-25T08:40:17;99015.38;;;18.11;50.42
64876;BME280;51369;49.862;9.908;2023-05-25T08:42:43;99009.44;;;18.18;49.89
64876;BME280;51369;49.862;9.908;2023-05-25T08:45:09;99008.84;;;18.28;50.42
64876;BME280;51369;49.862;9.908;2023-05-25T08:47:39;99010.31;;;18.33;49.88
64876;BME280;51369;49.862;9.908;2023-05-25T08:50:07;99016.06;;;18.43;50.26
64876;BME280;51369;49.862;9.908;2023-05-25T08:52:35;99011.75;;;18.53;50.06
64876;BME280;51369;49.862;9.908;2023-05-25T08:55:03;99002.28;;;18.59;48.94
64876;BME280;51369;49.862;9.908;2023-05-25T09:00:13;99015.03;;;18.87;49.77
64876;BME280;51369;49.862;9.908;2023-05-25T09:03:10;99007.88;;;18.98;47.51
64876;BME280;51369;49.862;9.908;2023-05-25T09:05:37;99011.63;;;19.10;47.93
64876;BME280;51369;49.862;9.908;2023-05-25T09:08:04;99009.56;;;19.13;46.89
64876;BME280;51369;49.862;9.908;2023-05-25T09:10:32;99005.63;;;19.17;47.02
64876;BME280;51369;49.862;9.908;2023-05-25T09:12:59;99013.44;;;19.24;47.85
64876;BME280;51369;49.862;9.908;2023-05-25T09:15:25;99011.03;;;19.32;47.43
64876;BME280;51369;49.862;9.908;2023-05-25T09:17:51;99006.91;;;19.39;47.52
64876;BME280;51369;49.862;9.908;2023-05-25T09:20:17;99007.16;;;19.48;47.94
64876;BME280;51369;49.862;9.908;2023-05-25T09:22:43;99003.03;;;19.56;47.21
64876;BME280;51369;49.862;9.908;2023-05-25T09:25:10;99009.53;;;19.67;48.43
64876;BME280;51369;49.862;9.908;2023-05-25T09:27:37;99011.19;;;19.82;47.86
64876;BME280;51369;49.862;9.908;2023-05-25T09:30:04;99001.78;;;19.99;48.21
64876;BME280;51369;49.862;9.908;2023-05-25T09:32:29;98999.47;;;20.19;47.42
64876;BME280;51369;49.862;9.908;2023-05-25T09:34:56;98995.63;;;20.34;47.13
64876;BME280;51369;49.862;9.908;2023-05-25T09:37:30;99004.53;;;20.50;46.86
64876;BME280;51369;49.862;9.908;2023-05-25T09:39:56;99001.97;;;20.60;45.82
64876;BME280;51369;49.862;9.908;2023-05-25T09:42:22;99007.44;;;20.72;46.00
64876;BME280;51369;49.862;9.908;2023-05-25T09:44:47;99009.00;;;20.88;46.13
64876;BME280;51369;49.862;9.908;2023-05-25T09:47:13;99008.50;;;21.06;46.24
64876;BME280;51369;49.862;9.908;2023-05-25T09:49:40;99006.38;;;21.23;44.46
64876;BME280;51369;49.862;9.908;2023-05-25T09:52:07;99010.81;;;21.36;44.41
64876;BME280;51369;49.862;9.908;2023-05-25T09:54:32;99015.38;;;21.49;43.83
64876;BME280;51369;49.862;9.908;2023-05-25T09:57:01;99018.03;;;21.61;43.81
64876;BME280;51369;49.862;9.908;2023-05-25T09:59:27;99007.72;;;21.76;43.83
64876;BME280;51369;49.862;9.908;2023-05-25T10:01:52;99006.75;;;21.88;43.86
64876;BME280;51369;49.862;9.908;2023-05-25T10:04:17;99003.84;;;22.02;45.02
64876;BME280;51369;49.862;9.908;2023-05-25T10:06:45;99012.59;;;22.07;42.74
64876;BME280;51369;49.862;9.908;2023-05-25T10:09:13;99012.72;;;22.17;43.55
64876;BME280;51369;49.862;9.908;2023-05-25T10:11:42;99004.38;;;22.30;43.15
64876;BME280;51369;49.862;9.908;2023-05-25T10:14:08;99013.75;;;22.50;43.25
64876;BME280;51369;49.862;9.908;2023-05-25T10:16:36;99008.47;;;22.69;44.14
64876;BME280;51369;49.862;9.908;2023-05-25T10:19:11;99010.34;;;22.91;43.94
64876;BME280;51369;49.862;9.908;2023-05-25T10:21:41;99013.03;;;23.24;42.41
64876;BME280;51369;49.862;9.908;2023-05-25T10:24:20;99018.75;;;23.44;43.97
64876;BME280;51369;49.862;9.908;2023-05-25T10:26:52;99015.34;;;23.51;41.86
64876;BME280;51369;49.862;9.908;2023-05-25T10:29:19;99015.09;;;23.54;41.32
64876;BME280;51369;49.862;9.908;2023-05-25T10:31:46;99020.44;;;23.67;42.54
64876;BME280;51369;49.862;9.908;2023-05-25T10:34:12;99018.75;;;23.76;42.53
64876;BME280;51369;49.862;9.908;2023-05-25T10:36:38;99021.75;;;23.84;40.12
64876;BME280;51369;49.862;9.908;2023-05-25T10:39:06;99020.81;;;23.94;41.38
64876;BME280;51369;49.862;9.908;2023-05-25T10:41:32;99016.50;;;24.01;40.10
64876;BME280;51369;49.862;9.908;2023-05-25T10:43:58;99018.72;;;24.08;41.07
64876;BME280;51369;49.862;9.908;2023-05-25T10:46:24;99015.00;;;24.18;39.97
64876;BME280;51369;49.862;9.908;2023-05-25T10:48:50;99009.81;;;24.25;40.80
64876;BME280;51369;49.862;9.908;2023-05-25T10:51:36;99025.84;;;24.31;41.18
64876;BME280;51369;49.862;9.908;2023-05-25T10:54:01;99016.59;;;24.42;40.79
64876;BME280;51369;49.862;9.908;2023-05-25T10:56:27;99017.19;;;24.45;40.54
64876;BME280;51369;49.862;9.908;2023-05-25T10:58:52;99016.59;;;24.42;41.50
64876;BME280;51369;49.862;9.908;2023-05-25T11:01:18;99012.09;;;24.41;41.01
64876;BME280;51369;49.862;9.908;2023-05-25T11:06:13;99012.16;;;24.50;41.25
64876;BME280;51369;49.862;9.908;2023-05-25T11:08:59;99011.78;;;24.64;43.33
64876;BME280;51369;49.862;9.908;2023-05-25T11:14:20;99000.88;;;24.63;39.70
64876;BME280;51369;49.862;9.908;2023-05-25T11:17:12;99009.28;;;24.61;39.16
64876;BME280;51369;49.862;9.908;2023-05-25T11:19:53;98997.56;;;24.69;41.69
64876;BME280;51369;49.862;9.908;2023-05-25T11:22:21;98993.78;;;24.70;40.68
64876;BME280;51369;49.862;9.908;2023-05-25T11:24:51;98996.00;;;24.86;45.93
64876;BME280;51369;49.862;9.908;2023-05-25T11:27:24;98994.28;;;24.94;41.61
64876;BME280;51369;49.862;9.908;2023-05-25T11:29:51;98989.41;;;25.08;38.90
64876;BME280;51369;49.862;9.908;2023-05-25T11:32:17;98986.41;;;25.20;40.57
64876;BME280;51369;49.862;9.908;2023-05-25T11:34:42;98986.25;;;25.32;38.56
64876;BME280;51369;49.862;9.908;2023-05-25T11:37:12;98974.50;;;25.49;39.25
64876;BME280;51369;49.862;9.908;2023-05-25T11:39:40;98973.34;;;25.71;40.66
64876;BME280;51369;49.862;9.908;2023-05-25T11:42:06;98970.88;;;25.87;38.58
64876;BME280;51369;49.862;9.908;2023-05-25T11:44:34;98981.78;;;25.88;37.62
64876;BME280;51369;49.862;9.908;2023-05-25T11:47:04;98976.56;;;25.85;36.67
64876;BME280;51369;49.862;9.908;2023-05-25T11:49:33;98978.00;;;25.89;38.99
64876;BME280;51369;49.862;9.908;2023-05-25T11:51:58;98979.16;;;25.97;39.53
64876;BME280;51369;49.862;9.908;2023-05-25T11:54:29;98975.38;;;25.98;36.11
64876;BME280;51369;49.862;9.908;2023-05-25T11:56:55;98969.84;;;25.98;36.84
64876;BME280;51369;49.862;9.908;2023-05-25T11:59:27;98968.34;;;26.03;37.17
64876;BME280;51369;49.862;9.908;2023-05-25T12:01:57;98960.16;;;26.11;37.01
64876;BME280;51369;49.862;9.908;2023-05-25T12:04:23;98965.69;;;26.21;37.24
64876;BME280;51369;49.862;9.908;2023-05-25T12:06:49;98965.78;;;26.29;36.64
64876;BME280;51369;49.862;9.908;2023-05-25T12:09:18;98960.09;;;26.31;37.43
64876;BME280;51369;49.862;9.908;2023-05-25T12:11:45;98970.31;;;26.30;35.84
64876;BME280;51369;49.862;9.908;2023-05-25T12:14:11;98958.38;;;26.30;36.03
64876;BME280;51369;49.862;9.908;2023-05-25T12:16:36;98958.22;;;26.31;36.40
64876;BME280;51369;49.862;9.908;2023-05-25T12:19:06;98963.91;;;26.30;35.83
64876;BME280;51369;49.862;9.908;2023-05-25T12:21:32;98957.50;;;26.29;39.30
64876;BME280;51369;49.862;9.908;2023-05-25T12:23:59;98955.75;;;26.28;36.95
64876;BME280;51369;49.862;9.908;2023-05-25T12:26:26;98948.63;;;26.25;35.58
64876;BME280;51369;49.862;9.908;2023-05-25T12:29:06;98948.75;;;26.24;39.08
64876;BME280;51369;49.862;9.908;2023-05-25T12:31:36;98948.31;;;26.28;36.60
64876;BME280;51369;49.862;9.908;2023-05-25T12:34:14;98947.03;;;26.33;37.53
64876;BME280;51369;49.862;9.908;2023-05-25T12:36:49;98950.94;;;26.40;36.50
64876;BME280;51369;49.862;9.908;2023-05-25T12:41:53;98944.44;;;26.58;39.81
64876;BME280;51369;49.862;9.908;2023-05-25T12:44:26;98939.00;;;26.67;37.18
64876;BME280;51369;49.862;9.908;2023-05-25T12:46:54;98949.78;;;26.70;35.86
64876;BME280;51369;49.862;9.908;2023-05-25T12:49:33;98927.50;;;26.62;35.08
64876;BME280;51369;49.862;9.908;2023-05-25T12:52:00;98927.47;;;26.71;38.17
64876;BME280;51369;49.862;9.908;2023-05-25T12:57:06;98927.31;;;26.73;37.17
64876;BME280;51369;49.862;9.908;2023-05-25T12:59:32;98928.44;;;26.80;38.10
64876;BME280;51369;49.862;9.908;2023-05-25T13:01:58;98938.72;;;26.97;39.78
64876;BME280;51369;49.862;9.908;2023-05-25T13:04:24;98931.63;;;27.12;38.19
64876;BME280;51369;49.862;9.908;2023-05-25T13:06:50;98927.59;;;27.25;37.49
64876;BME280;51369;49.862;9.908;2023-05-25T13:09:15;98927.28;;;27.28;35.52
64876;BME280;51369;49.862;9.908;2023-05-25T13:11:41;98922.59;;;27.28;36.32
64876;BME280;51369;49.862;9.908;2023-05-25T13:14:06;98915.00;;;27.30;38.00
64876;BME280;51369;49.862;9.908;2023-05-25T13:16:32;98916.75;;;27.31;37.24
64876;BME280;51369;49.862;9.908;2023-05-25T13:18:57;98913.66;;;27.34;35.84
64876;BME280;51369;49.862;9.908;2023-05-25T13:21:23;98921.66;;;27.37;36.13
64876;BME280;51369;49.862;9.908;2023-05-25T13:23:48;98911.50;;;27.46;36.74